MASCOMA R @ MASCOMA: From 06/04/2019 02:00 to 06/18/2019 18:00

Date STAGE [FT] FLOW [CFS] LAKE ELEVATION [FT] PRECIPITATION INCREMENT [IN] AIR TEMPERATURE [F]
06/18/2019 13:00 -- -- -- 0.00 --
06/18/2019 12:00 2.92 184.6 750.01 0.00 67.4
06/18/2019 11:00 2.92 184.6 750.01 0.00 65.0
06/18/2019 10:00 2.90 180.0 750.01 0.00 63.4
06/18/2019 09:00 2.92 184.6 750.01 0.00 60.2
06/18/2019 08:00 2.91 182.2 750.01 0.00 58.2
06/18/2019 07:00 2.90 180.0 750.00 0.00 57.5
06/18/2019 06:00 2.91 182.2 750.00 0.00 56.6
06/18/2019 05:00 2.91 182.2 750.00 0.00 56.2
06/18/2019 04:00 2.89 177.4 749.99 0.00 55.8
06/18/2019 03:00 2.88 174.8 749.99 0.00 55.4
06/18/2019 02:00 2.87 172.3 749.98 0.00 54.9
06/18/2019 01:00 2.87 172.3 749.98 0.00 55.7
06/18/2019 00:00 2.86 169.7 749.97 0.00 56.8
06/17/2019 23:00 2.85 167.2 749.96 0.00 58.8
06/17/2019 22:00 2.84 164.7 749.96 0.00 61.3
06/17/2019 21:00 2.83 162.3 749.95 0.00 66.3
06/17/2019 20:00 2.81 157.4 749.94 0.00 73.4
06/17/2019 19:00 2.80 155.0 749.93 0.00 79.2
06/17/2019 18:00 2.78 150.0 749.92 0.00 79.2
06/17/2019 17:00 2.78 150.0 749.92 0.00 76.7
06/17/2019 16:00 2.77 147.5 749.91 0.00 77.1
06/17/2019 15:00 2.77 147.5 749.90 0.00 73.7
06/17/2019 14:00 2.79 152.5 749.89 0.00 73.8
06/17/2019 13:00 3.11 255.7 749.88 0.00 73.0
06/17/2019 12:00 3.10 252.0 749.88 0.00 70.4
06/17/2019 11:00 3.10 252.0 749.87 0.00 65.3
06/17/2019 10:00 3.09 248.2 749.87 0.00 62.8
06/17/2019 09:00 3.09 248.2 749.87 0.00 58.5
06/17/2019 08:00 3.08 244.5 749.86 0.00 55.4
06/17/2019 07:00 3.08 244.5 749.86 0.00 54.2
06/17/2019 06:00 3.08 244.5 749.86 0.00 53.6
06/17/2019 05:00 3.07 240.8 749.86 0.00 54.9
06/17/2019 04:00 3.07 240.8 749.86 0.01 56.2
06/17/2019 03:00 3.07 240.8 749.86 0.00 56.1
06/17/2019 02:00 3.06 237.1 749.86 0.00 58.7
06/17/2019 01:00 3.07 240.8 749.86 0.00 62.2
06/17/2019 00:00 3.06 237.1 749.86 0.00 62.0
06/16/2019 23:00 3.07 240.8 749.86 0.00 62.8
06/16/2019 22:00 3.07 240.8 749.86 0.01 63.4
06/16/2019 21:00 3.07 240.8 749.86 0.01 63.7
06/16/2019 20:00 3.07 240.8 749.86 0.06 63.8
06/16/2019 19:00 3.06 237.1 749.85 0.11 64.1
06/16/2019 18:00 3.05 233.3 749.84 0.18 64.7
06/16/2019 17:00 3.04 229.7 749.84 0.01 66.8
06/16/2019 16:00 3.04 229.7 749.84 0.02 66.3
06/16/2019 15:00 3.05 233.3 749.84 0.04 65.3
06/16/2019 14:00 3.05 233.3 749.84 0.02 67.5
06/16/2019 13:00 3.04 229.7 749.83 0.01 67.2
06/16/2019 12:00 3.04 229.7 749.83 0.00 67.1
06/16/2019 11:00 3.05 233.3 749.84 0.00 68.0
06/16/2019 10:00 3.05 233.3 749.84 0.00 68.1
06/16/2019 09:00 3.05 233.3 749.84 0.00 66.6
06/16/2019 08:00 3.05 233.3 749.84 0.00 65.4
06/16/2019 07:00 3.06 237.1 749.85 0.00 63.4
06/16/2019 06:00 3.07 240.8 749.85 0.00 63.8
06/16/2019 05:00 3.07 240.8 749.85 0.00 64.5
06/16/2019 04:00 3.07 240.8 749.86 0.00 65.4
06/16/2019 03:00 3.06 237.1 749.85 0.00 66.6
06/16/2019 02:00 3.06 237.1 749.85 0.00 67.2
06/16/2019 01:00 3.07 240.8 749.86 0.00 68.3
06/16/2019 00:00 3.07 240.8 749.86 0.00 69.1
06/15/2019 23:00 3.08 244.5 749.87 0.00 70.1
06/15/2019 22:00 3.09 248.2 749.87 0.00 70.5
06/15/2019 21:00 3.09 248.2 749.87 0.00 71.3
06/15/2019 20:00 3.09 248.2 749.87 0.00 74.0
06/15/2019 19:00 3.09 248.2 749.87 0.00 75.2
06/15/2019 18:00 3.08 244.5 749.87 0.00 78.2
06/15/2019 17:00 3.08 244.5 749.87 0.00 78.6
06/15/2019 16:00 3.09 248.2 749.88 0.00 78.6
06/15/2019 15:00 3.10 252.0 749.88 0.00 77.6
06/15/2019 14:00 3.11 255.7 749.88 0.00 74.0
06/15/2019 13:00 3.11 255.7 749.88 0.00 69.9
06/15/2019 12:00 3.11 255.7 749.88 0.00 70.7
06/15/2019 11:00 3.11 255.7 749.88 0.00 61.8
06/15/2019 10:00 3.12 259.5 749.88 0.00 56.7
06/15/2019 09:00 3.12 259.5 749.88 0.00 54.1
06/15/2019 08:00 3.12 259.5 749.88 0.00 52.0
06/15/2019 07:00 3.12 259.5 749.88 0.00 51.2
06/15/2019 06:00 3.12 259.5 749.88 0.00 48.9
06/15/2019 05:00 3.12 259.5 749.88 0.00 47.9
06/15/2019 04:00 3.12 259.5 749.88 0.00 48.6
06/15/2019 03:00 3.11 255.7 749.88 0.00 49.6
06/15/2019 02:00 3.11 255.7 749.88 0.00 50.5
06/15/2019 01:00 3.11 255.7 749.88 0.00 51.9
06/15/2019 00:00 3.10 252.0 749.88 0.00 53.1
06/14/2019 23:00 3.10 252.0 749.88 0.00 57.2
06/14/2019 22:00 3.09 248.2 749.88 0.00 57.5
06/14/2019 21:00 3.10 252.0 749.88 0.00 58.0
06/14/2019 20:00 3.09 248.2 749.88 0.00 58.9
06/14/2019 19:00 3.09 248.2 749.88 0.00 60.1
06/14/2019 18:00 3.08 244.5 749.88 0.00 62.5
06/14/2019 17:00 3.09 248.2 749.89 0.00 63.4
06/14/2019 16:00 3.09 248.2 749.89 0.00 64.5
06/14/2019 15:00 3.10 252.0 749.89 0.00 63.7
06/14/2019 14:00 3.09 248.2 749.88 0.00 65.3
06/14/2019 13:00 3.09 248.2 749.88 0.00 64.6
06/14/2019 12:00 3.28 321.1 749.87 0.00 63.7
06/14/2019 11:00 3.27 317.2 749.87 0.00 61.4
06/14/2019 10:00 3.28 321.1 749.87 0.00 58.5
06/14/2019 09:00 3.28 321.1 749.82 0.00 57.0
06/14/2019 08:00 3.28 321.1 749.88 0.00 53.7
06/14/2019 07:00 3.28 321.1 749.88 0.00 52.5
06/14/2019 06:00 3.29 325.1 749.89 0.00 51.5
06/14/2019 05:00 3.29 325.1 749.89 0.00 51.6
06/14/2019 04:00 3.30 329.0 749.89 0.00 50.9
06/14/2019 03:00 3.30 329.0 749.90 0.00 51.6
06/14/2019 02:00 3.30 329.0 749.90 0.00 52.1
06/14/2019 01:00 3.30 329.0 749.90 0.00 50.7
06/14/2019 00:00 3.30 329.0 749.90 0.00 51.4
06/13/2019 23:00 3.30 329.0 749.90 0.00 52.6
06/13/2019 22:00 3.31 333.0 749.90 0.00 53.1
06/13/2019 21:00 3.32 336.9 749.91 0.00 54.0
06/13/2019 20:00 3.32 336.9 749.91 0.00 54.0
06/13/2019 19:00 3.36 352.9 749.93 0.00 54.5
06/13/2019 18:00 3.39 365.0 749.96 0.00 54.6
06/13/2019 17:00 3.40 369.0 749.97 0.00 54.5
06/13/2019 16:00 3.47 397.6 749.98 0.00 54.4
06/13/2019 15:00 3.44 385.3 749.97 0.02 52.1
06/13/2019 14:00 3.37 356.9 749.95 0.03 51.7
06/13/2019 13:00 3.38 360.9 749.95 0.01 54.9
06/13/2019 12:00 3.40 369.0 749.96 0.00 56.7
06/13/2019 11:00 3.43 381.2 749.96 0.00 59.9
06/13/2019 10:00 3.36 352.9 749.95 0.00 58.6
06/13/2019 09:00 3.38 360.9 749.95 0.00 57.0
06/13/2019 08:00 3.39 365.0 749.96 0.00 56.4
06/13/2019 07:00 3.39 365.0 749.96 0.00 55.6
06/13/2019 06:00 3.39 365.0 749.96 0.00 54.3
06/13/2019 05:00 3.39 365.0 749.96 0.00 55.2
06/13/2019 04:00 3.40 369.0 749.96 0.00 55.8
06/13/2019 03:00 3.40 369.0 749.96 0.00 55.6
06/13/2019 02:00 3.40 369.0 749.96 0.00 56.7
06/13/2019 01:00 3.39 365.0 749.97 0.00 58.8
06/13/2019 00:00 3.40 369.0 749.97 0.00 60.4
06/12/2019 23:00 3.41 373.1 749.97 0.00 61.5
06/12/2019 22:00 3.40 369.0 749.97 0.00 63.0
06/12/2019 21:00 3.41 373.1 749.97 0.00 68.9
06/12/2019 20:00 3.42 377.1 749.97 0.00 73.6
06/12/2019 19:00 3.42 377.1 749.98 0.00 75.1
06/12/2019 18:00 3.41 373.1 749.97 0.00 75.9
06/12/2019 17:00 3.42 377.1 749.97 0.00 74.3
06/12/2019 16:00 3.42 377.1 749.97 0.00 73.6
06/12/2019 15:00 3.41 373.1 749.97 0.00 74.1
06/12/2019 14:00 3.41 373.1 749.96 0.00 71.5
06/12/2019 13:00 3.41 373.1 749.97 0.00 71.7
06/12/2019 12:00 3.41 373.1 749.96 0.00 66.7
06/12/2019 11:00 3.40 369.0 749.96 0.00 64.1
06/12/2019 10:00 3.39 365.0 749.95 0.00 61.1
06/12/2019 09:00 3.38 360.9 749.95 0.00 59.7
06/12/2019 08:00 3.38 360.9 749.94 0.00 58.8
06/12/2019 07:00 3.36 352.9 749.93 0.00 49.1
06/12/2019 06:00 3.36 352.9 749.93 0.00 46.3
06/12/2019 05:00 3.35 348.9 749.92 0.00 46.9
06/12/2019 04:00 3.34 344.9 749.91 0.00 48.1
06/12/2019 03:00 3.33 340.9 749.90 0.00 49.7
06/12/2019 02:00 3.32 336.9 749.90 0.00 50.5
06/12/2019 01:00 3.31 333.0 749.89 0.00 52.0
06/12/2019 00:00 3.31 333.0 749.89 0.00 52.5
06/11/2019 23:00 3.32 336.9 749.88 0.00 55.0
06/11/2019 22:00 3.30 329.0 749.86 0.00 59.4
06/11/2019 21:00 3.28 321.1 749.86 0.00 62.7
06/11/2019 20:00 3.26 313.3 749.85 0.00 65.7
06/11/2019 19:00 3.24 305.5 749.84 0.00 68.6
06/11/2019 18:00 3.22 297.7 749.83 0.00 68.6
06/11/2019 17:00 3.21 293.9 749.82 0.00 69.2
06/11/2019 16:00 3.23 301.6 749.84 0.00 70.1
06/11/2019 15:00 3.23 301.6 749.84 0.00 68.7
06/11/2019 14:00 3.22 297.7 749.83 0.01 67.3
06/11/2019 13:00 3.21 293.9 749.83 0.00 66.3
06/11/2019 12:00 3.20 290.0 749.84 0.00 65.4
06/11/2019 11:00 3.21 293.9 749.84 0.00 65.5
06/11/2019 10:00 3.21 293.9 749.85 0.01 66.5
06/11/2019 09:00 3.22 297.7 749.85 0.01 65.4
06/11/2019 08:00 3.21 293.9 749.85 0.00 64.9
06/11/2019 07:00 3.21 293.9 749.85 0.11 64.3
06/11/2019 06:00 3.22 297.7 749.85 0.12 63.8
06/11/2019 05:00 3.20 290.0 749.84 0.01 64.8
06/11/2019 04:00 3.21 293.9 749.84 0.02 65.1
06/11/2019 03:00 3.22 297.7 749.84 0.02 64.0
06/11/2019 02:00 3.21 293.9 749.84 0.03 63.9
06/11/2019 01:00 3.20 290.0 749.83 0.01 64.4
06/11/2019 00:00 3.21 293.9 749.84 0.00 66.1
06/10/2019 23:00 3.21 293.9 749.83 0.00 70.1
06/10/2019 22:00 3.21 293.9 749.83 0.00 69.7
06/10/2019 21:00 3.21 293.9 749.84 0.00 73.4
06/10/2019 20:00 3.22 297.7 749.84 0.00 74.3
06/10/2019 19:00 3.23 301.6 749.85 0.00 75.7
06/10/2019 18:00 3.24 305.5 749.85 0.00 77.5
06/10/2019 17:00 3.24 305.5 749.86 0.00 78.2
06/10/2019 16:00 3.24 305.5 749.86 0.00 77.8
06/10/2019 15:00 3.24 305.5 749.86 0.00 75.9
06/10/2019 14:00 3.25 309.4 749.85 0.00 75.7
06/10/2019 13:00 3.25 309.4 749.85 0.00 77.6
06/10/2019 12:00 3.25 309.4 749.85 0.00 77.3
06/10/2019 11:00 3.25 309.4 749.85 0.00 75.7
06/10/2019 10:00 3.26 313.3 749.85 0.00 71.0
06/10/2019 09:00 3.26 313.3 749.93 0.00 65.0
06/10/2019 08:00 3.26 313.3 749.86 0.00 56.8
06/10/2019 07:00 3.27 317.2 749.86 0.00 57.4
06/10/2019 06:00 3.27 317.2 749.86 0.00 53.4
06/10/2019 05:00 3.26 313.3 749.86 0.00 54.4
06/10/2019 04:00 3.26 313.3 749.86 0.00 55.0
06/10/2019 03:00 3.27 317.2 749.86 0.00 56.1
06/10/2019 02:00 3.27 317.2 749.86 0.00 56.9
06/10/2019 01:00 3.26 313.3 749.86 0.00 58.2
06/10/2019 00:00 3.26 313.3 749.86 0.00 59.8
06/09/2019 23:00 3.26 313.3 749.86 0.00 61.8
06/09/2019 22:00 3.26 313.3 749.86 0.00 64.9
06/09/2019 21:00 3.26 313.3 749.86 0.00 69.7
06/09/2019 20:00 3.26 313.3 749.86 0.00 76.9
06/09/2019 19:00 3.26 313.3 749.86 0.00 79.2
06/09/2019 18:00 3.26 313.3 749.86 0.00 77.6
06/09/2019 17:00 3.28 321.1 749.86 0.00 78.9
06/09/2019 16:00 3.27 317.2 749.86 0.00 78.0
06/09/2019 15:00 3.27 317.2 749.85 0.00 77.0
06/09/2019 14:00 3.27 317.2 749.85 0.00 79.3
06/09/2019 13:00 3.28 321.1 749.85 0.00 75.7
06/09/2019 12:00 3.28 321.1 749.85 0.00 72.6
06/09/2019 11:00 3.28 321.1 749.85 0.00 66.2
06/09/2019 10:00 3.91 587.5 749.85 0.00 59.5
06/09/2019 09:00 3.93 596.4 749.86 0.00 54.5
06/09/2019 08:00 3.93 596.4 749.87 0.00 52.5
06/09/2019 07:00 3.93 596.4 749.88 0.00 49.2
06/09/2019 06:00 3.94 600.9 749.89 0.00 47.5
06/09/2019 05:00 3.97 614.4 749.90 0.00 47.2
06/09/2019 04:00 3.96 609.9 749.91 0.00 48.3
06/09/2019 03:00 3.98 618.9 749.93 0.00 49.3
06/09/2019 02:00 3.99 623.5 749.94 0.00 50.6
06/09/2019 01:00 4.00 628.0 749.96 0.00 51.8
06/09/2019 00:00 4.02 637.1 749.97 0.00 54.3
06/08/2019 23:00 4.04 646.3 749.98 0.00 56.1
06/08/2019 22:00 4.05 650.9 749.99 0.00 59.0
06/08/2019 21:00 4.06 655.5 750.00 0.00 65.4
06/08/2019 20:00 4.08 664.7 750.01 0.00 73.9
06/08/2019 19:00 4.09 669.4 750.02 0.00 78.8
06/08/2019 18:00 4.10 674.0 750.03 0.00 77.7
06/08/2019 17:00 4.13 688.0 750.04 0.00 78.1
06/08/2019 16:00 4.15 697.4 750.06 0.00 78.2
06/08/2019 15:00 4.16 702.1 750.07 0.00 77.0
06/08/2019 14:00 4.19 716.3 750.08 0.00 74.7
06/08/2019 13:00 4.20 721.0 750.10 0.00 72.7
06/08/2019 12:00 4.22 730.4 750.11 0.00 72.4
06/08/2019 11:00 4.24 739.7 750.12 0.00 70.8
06/08/2019 10:00 4.27 753.8 750.14 0.00 66.2
06/08/2019 09:00 4.29 763.3 750.16 0.00 63.6
06/08/2019 08:00 4.31 772.7 750.17 0.00 59.9
06/08/2019 07:00 4.32 777.4 750.18 0.00 52.4
06/08/2019 06:00 4.35 791.4 750.20 0.00 49.9
06/08/2019 05:00 4.36 796.1 750.21 0.00 50.9
06/08/2019 04:00 4.39 810.3 750.22 0.00 51.3
06/08/2019 03:00 4.41 819.9 750.24 0.00 52.4
06/08/2019 02:00 4.45 839.4 750.25 0.00 54.0
06/08/2019 01:00 4.46 844.3 750.26 0.00 56.2
06/08/2019 00:00 4.48 854.1 750.27 0.00 58.8
06/07/2019 23:00 4.53 878.3 750.29 0.00 61.2
06/07/2019 22:00 4.53 878.3 750.30 0.00 64.3
06/07/2019 21:00 4.56 892.7 750.31 0.00 69.7
06/07/2019 20:00 4.58 902.4 750.32 0.00 76.0
06/07/2019 19:00 4.61 917.0 750.34 0.00 80.2
06/07/2019 18:00 4.61 917.0 750.35 0.00 80.1
06/07/2019 17:00 4.65 936.9 750.36 0.00 80.4
06/07/2019 16:00 4.70 962.0 750.38 0.00 78.9
06/07/2019 15:00 4.70 962.0 750.39 0.00 75.2
06/07/2019 14:00 4.73 976.4 750.40 0.00 76.5
06/07/2019 13:00 4.77 995.6 750.41 0.00 74.5
06/07/2019 12:00 4.76 990.8 750.41 0.00 71.5
06/07/2019 11:00 4.76 990.8 750.42 0.00 68.4
06/07/2019 10:00 4.50 864.0 750.42 0.00 59.0
06/07/2019 09:00 4.47 849.2 750.42 0.00 53.3
06/07/2019 08:00 4.44 834.5 750.41 0.00 47.5
06/07/2019 07:00 4.43 829.6 750.40 0.00 51.4
06/07/2019 06:00 4.41 819.9 750.39 0.00 46.3
06/07/2019 05:00 4.38 805.6 750.38 0.00 47.0
06/07/2019 04:00 4.34 786.7 750.36 0.00 47.7
06/07/2019 03:00 4.32 777.4 750.35 0.00 48.6
06/07/2019 02:00 4.27 753.8 750.33 0.00 50.1
06/07/2019 01:00 4.23 735.0 750.31 0.00 51.4
06/07/2019 00:00 4.18 711.5 750.30 0.00 52.9
06/06/2019 23:00 4.12 683.3 750.28 0.00 55.2
06/06/2019 22:00 4.06 655.5 750.27 0.00 58.6
06/06/2019 21:00 4.00 628.0 750.25 0.00 63.8
06/06/2019 20:00 3.95 605.4 750.22 0.00 71.9
06/06/2019 19:00 3.90 583.0 750.20 0.00 75.8
06/06/2019 18:00 3.86 565.3 750.18 0.00 75.9
06/06/2019 17:00 3.80 539.0 750.17 0.00 76.4
06/06/2019 16:00 3.78 530.1 750.14 0.00 74.9
06/06/2019 15:00 3.71 499.4 750.12 0.00 72.4
06/06/2019 14:00 3.69 490.7 750.10 0.00 71.9
06/06/2019 13:00 3.64 469.1 750.08 0.00 71.2
06/06/2019 12:00 3.60 452.0 750.06 0.00 67.5
06/06/2019 11:00 3.56 435.1 750.04 0.00 65.6
06/06/2019 10:00 3.53 422.5 750.02 0.01 66.7
06/06/2019 09:00 3.48 401.7 750.00 0.00 62.7
06/06/2019 08:00 3.45 389.4 749.98 0.03 60.7
06/06/2019 07:00 3.40 369.0 749.96 0.01 60.1
06/06/2019 06:00 3.39 365.0 749.94 0.04 60.5
06/06/2019 05:00 3.37 356.9 749.92 0.00 60.5
06/06/2019 04:00 3.35 348.9 749.91 0.05 60.5
06/06/2019 03:00 3.33 340.9 749.89 0.08 60.9
06/06/2019 02:00 3.33 340.9 749.88 0.11 61.0
06/06/2019 01:00 3.31 333.0 749.87 0.10 61.1
06/06/2019 00:00 3.29 325.1 749.85 0.05 61.8
06/05/2019 23:00 3.29 325.1 749.84 0.10 62.0
06/05/2019 22:00 3.26 313.3 749.81 0.29 62.2
06/05/2019 21:00 3.22 297.7 749.78 0.10 62.5
06/05/2019 20:00 3.21 293.9 749.77 0.05 63.2
06/05/2019 19:00 3.20 290.0 749.76 0.02 65.4
06/05/2019 18:00 3.20 290.0 749.76 0.00 67.6
06/05/2019 17:00 3.19 286.2 749.75 0.00 70.4
06/05/2019 16:00 3.19 286.2 749.75 0.00 73.7
06/05/2019 15:00 3.19 286.2 749.75 0.00 70.5
06/05/2019 14:00 3.19 286.2 749.75 0.00 67.2
06/05/2019 13:00 3.20 290.0 749.75 0.00 57.9
06/05/2019 12:00 3.21 293.9 749.75 0.00 55.6
06/05/2019 11:00 3.21 293.9 749.76 0.00 52.7
06/05/2019 10:00 3.22 297.7 749.76 0.01 51.5
06/05/2019 09:00 3.22 297.7 749.76 0.00 51.2
06/05/2019 08:00 3.22 297.7 749.76 0.01 50.4
06/05/2019 07:00 3.22 297.7 749.77 0.01 50.2
06/05/2019 06:00 3.23 301.6 749.77 0.00 49.8
06/05/2019 05:00 3.22 297.7 749.77 0.07 49.2
06/05/2019 04:00 3.22 297.7 749.76 0.07 49.6
06/05/2019 03:00 3.21 293.9 749.75 0.03 49.9
06/05/2019 02:00 3.21 293.9 749.75 0.02 50.1
06/05/2019 01:00 3.21 293.9 749.75 0.01 50.6
06/05/2019 00:00 3.21 293.9 749.75 0.00 51.6
06/04/2019 23:00 3.22 297.7 749.76 0.00 52.7
06/04/2019 22:00 3.23 301.6 749.76 0.00 53.9
06/04/2019 21:00 3.23 301.6 749.76 0.00 55.5
06/04/2019 20:00 3.21 293.9 749.75 0.00 58.2
06/04/2019 19:00 3.22 297.7 749.76 0.00 61.2
06/04/2019 18:00 3.23 301.6 749.77 0.00 63.2
06/04/2019 17:00 3.22 297.7 749.77 0.00 64.9
06/04/2019 16:00 3.22 297.7 749.77 0.00 64.6
06/04/2019 15:00 3.22 297.7 749.77 0.00 62.2
06/04/2019 14:00 3.22 297.7 749.77 0.00 63.9
06/04/2019 13:00 3.24 305.5 749.77 0.00 61.6
06/04/2019 12:00 -- -- -- -- --
06/04/2019 11:00 -- -- -- -- --
06/04/2019 10:00 -- -- -- -- --
06/04/2019 09:00 -- -- -- -- --
06/04/2019 08:00 -- -- -- -- --
06/04/2019 07:00 -- -- -- -- --
06/04/2019 06:00 -- -- -- -- --
06/04/2019 05:00 -- -- -- -- --
06/04/2019 04:00 -- -- -- -- --
06/04/2019 03:00 -- -- -- -- --
06/04/2019 02:00 -- -- -- -- --